sensor_id;sensor_type;location;lat;lon;timestamp;P1;durP1;ratioP1;P2;durP2;ratioP2
71503;SDS011;59323;50.874;7.028;2023-06-22T00:01:01;7.83;;;4.73;;
71503;SDS011;59323;50.874;7.028;2023-06-22T00:03:26;7.70;;;4.72;;
71503;SDS011;59323;50.874;7.028;2023-06-22T00:05:52;8.37;;;4.70;;
71503;SDS011;59323;50.874;7.028;2023-06-22T00:08:18;9.50;;;4.45;;
71503;SDS011;59323;50.874;7.028;2023-06-22T00:10:44;8.23;;;5.27;;
71503;SDS011;59323;50.874;7.028;2023-06-22T00:13:11;9.43;;;5.10;;
71503;SDS011;59323;50.874;7.028;2023-06-22T00:15:38;8.00;;;4.78;;
71503;SDS011;59323;50.874;7.028;2023-06-22T00:18:06;10.75;;;5.20;;
71503;SDS011;59323;50.874;7.028;2023-06-22T00:20:32;9.85;;;5.32;;
71503;SDS011;59323;50.874;7.028;2023-06-22T00:22:58;9.97;;;5.10;;
71503;SDS011;59323;50.874;7.028;2023-06-22T00:25:24;8.75;;;5.10;;
71503;SDS011;59323;50.874;7.028;2023-06-22T00:27:50;8.27;;;4.83;;
71503;SDS011;59323;50.874;7.028;2023-06-22T00:30:16;8.15;;;4.72;;
71503;SDS011;59323;50.874;7.028;2023-06-22T00:32:42;9.23;;;4.90;;
71503;SDS011;59323;50.874;7.028;2023-06-22T00:35:08;8.63;;;4.93;;
71503;SDS011;59323;50.874;7.028;2023-06-22T00:37:35;7.00;;;4.63;;
71503;SDS011;59323;50.874;7.028;2023-06-22T00:40:01;7.75;;;5.05;;
71503;SDS011;59323;50.874;7.028;2023-06-22T00:42:26;8.00;;;5.17;;
71503;SDS011;59323;50.874;7.028;2023-06-22T00:44:52;8.50;;;5.17;;
71503;SDS011;59323;50.874;7.028;2023-06-22T00:47:17;10.52;;;4.50;;
71503;SDS011;59323;50.874;7.028;2023-06-22T00:49:43;10.40;;;4.83;;
71503;SDS011;59323;50.874;7.028;2023-06-22T00:52:22;8.98;;;5.35;;
71503;SDS011;59323;50.874;7.028;2023-06-22T00:54:54;8.63;;;4.90;;
71503;SDS011;59323;50.874;7.028;2023-06-22T00:57:20;8.70;;;5.50;;
71503;SDS011;59323;50.874;7.028;2023-06-22T00:59:47;10.20;;;5.07;;
71503;SDS011;59323;50.874;7.028;2023-06-22T01:02:13;10.27;;;5.40;;
71503;SDS011;59323;50.874;7.028;2023-06-22T01:04:39;9.25;;;5.45;;
71503;SDS011;59323;50.874;7.028;2023-06-22T01:10:18;7.88;;;4.80;;
71503;SDS011;59323;50.874;7.028;2023-06-22T01:12:51;7.97;;;4.90;;
71503;SDS011;59323;50.874;7.028;2023-06-22T01:15:23;8.00;;;4.20;;
71503;SDS011;59323;50.874;7.028;2023-06-22T01:17:53;7.78;;;5.35;;
71503;SDS011;59323;50.874;7.028;2023-06-22T01:20:22;8.05;;;4.68;;
71503;SDS011;59323;50.874;7.028;2023-06-22T01:28:34;8.15;;;5.30;;
71503;SDS011;59323;50.874;7.028;2023-06-22T01:31:07;9.23;;;5.30;;
71503;SDS011;59323;50.874;7.028;2023-06-22T01:33:34;9.27;;;4.78;;
71503;SDS011;59323;50.874;7.028;2023-06-22T01:36:02;10.10;;;5.18;;
71503;SDS011;59323;50.874;7.028;2023-06-22T01:38:29;7.63;;;4.93;;
71503;SDS011;59323;50.874;7.028;2023-06-22T01:40:56;8.25;;;5.18;;
71503;SDS011;59323;50.874;7.028;2023-06-22T01:43:22;7.88;;;4.43;;
71503;SDS011;59323;50.874;7.028;2023-06-22T01:45:50;8.30;;;4.60;;
71503;SDS011;59323;50.874;7.028;2023-06-22T01:48:16;9.40;;;5.17;;
71503;SDS011;59323;50.874;7.028;2023-06-22T01:50:43;8.73;;;5.97;;
71503;SDS011;59323;50.874;7.028;2023-06-22T01:53:08;9.57;;;5.35;;
71503;SDS011;59323;50.874;7.028;2023-06-22T01:55:34;7.73;;;4.87;;
71503;SDS011;59323;50.874;7.028;2023-06-22T01:57:59;8.37;;;4.60;;
71503;SDS011;59323;50.874;7.028;2023-06-22T02:00:25;8.03;;;5.33;;
71503;SDS011;59323;50.874;7.028;2023-06-22T02:02:54;9.70;;;5.30;;
71503;SDS011;59323;50.874;7.028;2023-06-22T02:05:24;9.27;;;5.18;;
71503;SDS011;59323;50.874;7.028;2023-06-22T02:08:00;8.05;;;4.63;;
71503;SDS011;59323;50.874;7.028;2023-06-22T02:10:31;7.95;;;4.30;;
71503;SDS011;59323;50.874;7.028;2023-06-22T02:12:57;8.63;;;4.68;;
71503;SDS011;59323;50.874;7.028;2023-06-22T02:15:25;8.23;;;4.60;;
71503;SDS011;59323;50.874;7.028;2023-06-22T02:17:50;7.88;;;4.85;;
71503;SDS011;59323;50.874;7.028;2023-06-22T02:20:16;7.70;;;5.00;;
71503;SDS011;59323;50.874;7.028;2023-06-22T02:22:41;10.83;;;5.13;;
71503;SDS011;59323;50.874;7.028;2023-06-22T02:25:07;8.07;;;4.68;;
71503;SDS011;59323;50.874;7.028;2023-06-22T02:27:33;7.17;;;4.70;;
71503;SDS011;59323;50.874;7.028;2023-06-22T02:29:58;7.43;;;4.43;;
71503;SDS011;59323;50.874;7.028;2023-06-22T02:32:23;12.17;;;4.53;;
71503;SDS011;59323;50.874;7.028;2023-06-22T02:34:49;9.17;;;5.27;;
71503;SDS011;59323;50.874;7.028;2023-06-22T02:37:14;8.10;;;4.73;;
71503;SDS011;59323;50.874;7.028;2023-06-22T02:39:40;9.27;;;4.93;;
71503;SDS011;59323;50.874;7.028;2023-06-22T02:42:05;8.48;;;5.45;;
71503;SDS011;59323;50.874;7.028;2023-06-22T02:44:31;7.93;;;4.93;;
71503;SDS011;59323;50.874;7.028;2023-06-22T02:46:56;8.75;;;5.13;;
71503;SDS011;59323;50.874;7.028;2023-06-22T02:49:22;10.63;;;4.83;;
71503;SDS011;59323;50.874;7.028;2023-06-22T02:51:48;7.78;;;4.20;;
71503;SDS011;59323;50.874;7.028;2023-06-22T02:54:14;9.00;;;5.30;;
71503;SDS011;59323;50.874;7.028;2023-06-22T02:56:39;8.67;;;4.60;;
71503;SDS011;59323;50.874;7.028;2023-06-22T02:59:05;9.03;;;5.33;;
71503;SDS011;59323;50.874;7.028;2023-06-22T03:01:31;7.90;;;5.07;;
71503;SDS011;59323;50.874;7.028;2023-06-22T03:04:04;8.93;;;5.20;;
71503;SDS011;59323;50.874;7.028;2023-06-22T03:06:30;8.67;;;5.03;;
71503;SDS011;59323;50.874;7.028;2023-06-22T03:08:59;8.30;;;5.20;;
71503;SDS011;59323;50.874;7.028;2023-06-22T03:11:26;8.77;;;5.78;;
71503;SDS011;59323;50.874;7.028;2023-06-22T03:13:52;7.90;;;4.77;;
71503;SDS011;59323;50.874;7.028;2023-06-22T03:16:18;9.15;;;5.28;;
71503;SDS011;59323;50.874;7.028;2023-06-22T03:18:44;9.55;;;5.85;;
71503;SDS011;59323;50.874;7.028;2023-06-22T03:21:09;8.93;;;5.27;;
71503;SDS011;59323;50.874;7.028;2023-06-22T03:23:35;7.43;;;4.37;;
71503;SDS011;59323;50.874;7.028;2023-06-22T03:26:00;8.02;;;5.10;;
71503;SDS011;59323;50.874;7.028;2023-06-22T03:28:26;8.97;;;5.37;;
71503;SDS011;59323;50.874;7.028;2023-06-22T03:30:51;8.73;;;5.27;;
71503;SDS011;59323;50.874;7.028;2023-06-22T03:33:17;8.60;;;5.25;;
71503;SDS011;59323;50.874;7.028;2023-06-22T03:35:42;9.17;;;5.03;;
71503;SDS011;59323;50.874;7.028;2023-06-22T03:38:07;8.27;;;4.80;;
71503;SDS011;59323;50.874;7.028;2023-06-22T03:40:33;9.40;;;6.23;;
71503;SDS011;59323;50.874;7.028;2023-06-22T03:42:58;8.27;;;5.00;;
71503;SDS011;59323;50.874;7.028;2023-06-22T03:45:23;11.87;;;5.73;;
71503;SDS011;59323;50.874;7.028;2023-06-22T03:47:49;10.17;;;5.73;;
71503;SDS011;59323;50.874;7.028;2023-06-22T03:50:14;10.20;;;5.75;;
71503;SDS011;59323;50.874;7.028;2023-06-22T03:52:39;16.07;;;6.37;;
71503;SDS011;59323;50.874;7.028;2023-06-22T03:55:05;11.43;;;6.60;;
71503;SDS011;59323;50.874;7.028;2023-06-22T03:57:31;10.27;;;6.95;;
71503;SDS011;59323;50.874;7.028;2023-06-22T03:59:57;10.90;;;7.53;;
71503;SDS011;59323;50.874;7.028;2023-06-22T04:02:23;13.07;;;7.40;;
71503;SDS011;59323;50.874;7.028;2023-06-22T04:04:48;16.88;;;7.38;;
71503;SDS011;59323;50.874;7.028;2023-06-22T04:07:14;10.53;;;6.00;;
71503;SDS011;59323;50.874;7.028;2023-06-22T04:09:39;10.67;;;7.13;;
71503;SDS011;59323;50.874;7.028;2023-06-22T04:12:05;10.57;;;6.10;;
71503;SDS011;59323;50.874;7.028;2023-06-22T04:14:30;8.73;;;5.55;;
71503;SDS011;59323;50.874;7.028;2023-06-22T04:16:56;11.23;;;6.63;;
71503;SDS011;59323;50.874;7.028;2023-06-22T04:19:23;12.15;;;7.32;;
71503;SDS011;59323;50.874;7.028;2023-06-22T04:21:48;11.23;;;7.00;;
71503;SDS011;59323;50.874;7.028;2023-06-22T04:24:14;12.27;;;7.07;;
71503;SDS011;59323;50.874;7.028;2023-06-22T04:26:39;10.60;;;6.43;;
71503;SDS011;59323;50.874;7.028;2023-06-22T04:29:06;11.45;;;7.13;;
71503;SDS011;59323;50.874;7.028;2023-06-22T04:31:33;12.82;;;7.07;;
71503;SDS011;59323;50.874;7.028;2023-06-22T04:34:02;11.43;;;7.07;;
71503;SDS011;59323;50.874;7.028;2023-06-22T04:36:40;10.57;;;7.20;;
71503;SDS011;59323;50.874;7.028;2023-06-22T04:39:09;10.73;;;7.05;;
71503;SDS011;59323;50.874;7.028;2023-06-22T04:41:39;9.95;;;6.65;;
71503;SDS011;59323;50.874;7.028;2023-06-22T04:44:14;10.10;;;6.60;;
71503;SDS011;59323;50.874;7.028;2023-06-22T04:46:50;13.10;;;7.23;;
71503;SDS011;59323;50.874;7.028;2023-06-22T04:49:19;10.82;;;7.30;;
71503;SDS011;59323;50.874;7.028;2023-06-22T04:51:47;9.50;;;6.72;;
71503;SDS011;59323;50.874;7.028;2023-06-22T04:54:12;10.25;;;7.22;;
71503;SDS011;59323;50.874;7.028;2023-06-22T04:56:38;10.70;;;6.33;;
71503;SDS011;59323;50.874;7.028;2023-06-22T04:59:05;11.50;;;7.50;;
71503;SDS011;59323;50.874;7.028;2023-06-22T05:01:31;10.37;;;6.53;;
71503;SDS011;59323;50.874;7.028;2023-06-22T05:03:57;10.93;;;6.80;;
71503;SDS011;59323;50.874;7.028;2023-06-22T05:06:23;10.13;;;6.87;;
71503;SDS011;59323;50.874;7.028;2023-06-22T05:08:53;9.90;;;5.88;;
71503;SDS011;59323;50.874;7.028;2023-06-22T05:11:22;11.00;;;7.15;;
71503;SDS011;59323;50.874;7.028;2023-06-22T05:13:51;9.80;;;6.45;;
71503;SDS011;59323;50.874;7.028;2023-06-22T05:16:16;10.77;;;6.77;;
71503;SDS011;59323;50.874;7.028;2023-06-22T05:18:42;9.57;;;6.47;;
71503;SDS011;59323;50.874;7.028;2023-06-22T05:21:08;10.65;;;7.40;;
71503;SDS011;59323;50.874;7.028;2023-06-22T05:23:34;11.87;;;7.60;;
71503;SDS011;59323;50.874;7.028;2023-06-22T05:25:59;10.40;;;6.57;;
71503;SDS011;59323;50.874;7.028;2023-06-22T05:28:24;11.03;;;6.70;;
71503;SDS011;59323;50.874;7.028;2023-06-22T05:30:50;11.47;;;6.77;;
71503;SDS011;59323;50.874;7.028;2023-06-22T05:33:15;10.33;;;6.70;;
71503;SDS011;59323;50.874;7.028;2023-06-22T05:35:40;12.07;;;7.53;;
71503;SDS011;59323;50.874;7.028;2023-06-22T05:38:06;10.40;;;7.15;;
71503;SDS011;59323;50.874;7.028;2023-06-22T05:40:31;14.33;;;8.20;;
71503;SDS011;59323;50.874;7.028;2023-06-22T05:42:57;10.57;;;7.43;;
71503;SDS011;59323;50.874;7.028;2023-06-22T05:45:22;14.90;;;7.57;;
71503;SDS011;59323;50.874;7.028;2023-06-22T05:47:48;12.23;;;7.90;;
71503;SDS011;59323;50.874;7.028;2023-06-22T05:50:13;10.73;;;6.57;;
71503;SDS011;59323;50.874;7.028;2023-06-22T05:52:39;12.40;;;7.53;;
71503;SDS011;59323;50.874;7.028;2023-06-22T05:55:04;11.77;;;6.93;;
71503;SDS011;59323;50.874;7.028;2023-06-22T05:57:30;12.63;;;7.80;;
71503;SDS011;59323;50.874;7.028;2023-06-22T05:59:55;12.30;;;7.20;;
71503;SDS011;59323;50.874;7.028;2023-06-22T06:02:21;13.83;;;7.23;;
71503;SDS011;59323;50.874;7.028;2023-06-22T06:04:46;12.67;;;7.57;;
71503;SDS011;59323;50.874;7.028;2023-06-22T06:07:11;11.20;;;7.47;;
71503;SDS011;59323;50.874;7.028;2023-06-22T06:09:37;11.30;;;7.27;;
71503;SDS011;59323;50.874;7.028;2023-06-22T06:12:02;12.00;;;6.97;;
71503;SDS011;59323;50.874;7.028;2023-06-22T06:14:28;10.10;;;6.32;;
71503;SDS011;59323;50.874;7.028;2023-06-22T06:16:53;12.57;;;7.20;;
71503;SDS011;59323;50.874;7.028;2023-06-22T06:19:19;11.68;;;7.22;;
71503;SDS011;59323;50.874;7.028;2023-06-22T06:21:44;10.53;;;6.80;;
71503;SDS011;59323;50.874;7.028;2023-06-22T06:24:09;9.50;;;6.40;;
71503;SDS011;59323;50.874;7.028;2023-06-22T06:26:35;12.63;;;7.00;;
71503;SDS011;59323;50.874;7.028;2023-06-22T06:29:00;8.77;;;5.90;;
71503;SDS011;59323;50.874;7.028;2023-06-22T06:31:27;11.75;;;6.43;;
71503;SDS011;59323;50.874;7.028;2023-06-22T06:33:53;10.57;;;6.93;;
71503;SDS011;59323;50.874;7.028;2023-06-22T06:36:19;14.82;;;6.55;;
71503;SDS011;59323;50.874;7.028;2023-06-22T06:38:45;11.57;;;6.65;;
71503;SDS011;59323;50.874;7.028;2023-06-22T06:41:13;10.90;;;6.60;;
71503;SDS011;59323;50.874;7.028;2023-06-22T06:43:39;9.90;;;5.97;;
71503;SDS011;59323;50.874;7.028;2023-06-22T06:46:04;10.50;;;6.68;;
71503;SDS011;59323;50.874;7.028;2023-06-22T06:48:29;11.10;;;6.47;;
71503;SDS011;59323;50.874;7.028;2023-06-22T06:50:55;10.93;;;6.63;;
71503;SDS011;59323;50.874;7.028;2023-06-22T06:53:20;11.23;;;6.07;;
71503;SDS011;59323;50.874;7.028;2023-06-22T06:55:45;10.20;;;6.47;;
71503;SDS011;59323;50.874;7.028;2023-06-22T06:58:11;9.40;;;5.90;;
71503;SDS011;59323;50.874;7.028;2023-06-22T07:00:38;10.37;;;5.90;;
71503;SDS011;59323;50.874;7.028;2023-06-22T07:03:04;10.43;;;6.45;;
71503;SDS011;59323;50.874;7.028;2023-06-22T07:05:30;9.27;;;6.40;;
71503;SDS011;59323;50.874;7.028;2023-06-22T07:07:55;10.17;;;6.43;;
71503;SDS011;59323;50.874;7.028;2023-06-22T07:10:21;11.00;;;6.25;;
71503;SDS011;59323;50.874;7.028;2023-06-22T07:12:46;10.40;;;6.47;;
71503;SDS011;59323;50.874;7.028;2023-06-22T07:15:12;11.00;;;6.70;;
71503;SDS011;59323;50.874;7.028;2023-06-22T07:17:37;10.82;;;7.50;;
71503;SDS011;59323;50.874;7.028;2023-06-22T07:20:06;11.60;;;6.83;;
71503;SDS011;59323;50.874;7.028;2023-06-22T07:22:35;10.57;;;7.15;;
71503;SDS011;59323;50.874;7.028;2023-06-22T07:25:00;10.60;;;6.28;;
71503;SDS011;59323;50.874;7.028;2023-06-22T07:27:26;10.77;;;6.63;;
71503;SDS011;59323;50.874;7.028;2023-06-22T07:29:51;12.53;;;7.20;;
71503;SDS011;59323;50.874;7.028;2023-06-22T07:32:17;12.05;;;6.07;;
71503;SDS011;59323;50.874;7.028;2023-06-22T07:34:42;9.97;;;6.10;;
71503;SDS011;59323;50.874;7.028;2023-06-22T07:37:15;11.68;;;6.55;;
71503;SDS011;59323;50.874;7.028;2023-06-22T07:39:40;10.53;;;6.20;;
71503;SDS011;59323;50.874;7.028;2023-06-22T07:42:07;9.45;;;6.10;;
71503;SDS011;59323;50.874;7.028;2023-06-22T07:44:32;9.00;;;6.45;;
71503;SDS011;59323;50.874;7.028;2023-06-22T07:46:58;9.67;;;6.40;;
71503;SDS011;59323;50.874;7.028;2023-06-22T07:49:23;10.10;;;7.03;;
71503;SDS011;59323;50.874;7.028;2023-06-22T07:51:49;9.80;;;6.40;;
71503;SDS011;59323;50.874;7.028;2023-06-22T07:54:14;9.13;;;6.37;;
71503;SDS011;59323;50.874;7.028;2023-06-22T07:56:40;11.75;;;7.38;;
71503;SDS011;59323;50.874;7.028;2023-06-22T07:59:06;9.43;;;6.80;;
71503;SDS011;59323;50.874;7.028;2023-06-22T08:01:31;10.98;;;7.32;;
71503;SDS011;59323;50.874;7.028;2023-06-22T08:03:57;11.03;;;7.50;;
71503;SDS011;59323;50.874;7.028;2023-06-22T08:06:22;10.67;;;7.03;;
71503;SDS011;59323;50.874;7.028;2023-06-22T08:08:47;10.43;;;7.03;;
71503;SDS011;59323;50.874;7.028;2023-06-22T08:11:23;9.82;;;6.53;;
71503;SDS011;59323;50.874;7.028;2023-06-22T08:13:50;9.48;;;6.15;;
71503;SDS011;59323;50.874;7.028;2023-06-22T08:16:15;9.50;;;6.30;;
71503;SDS011;59323;50.874;7.028;2023-06-22T08:18:40;10.77;;;6.23;;
71503;SDS011;59323;50.874;7.028;2023-06-22T08:21:06;10.87;;;6.57;;
71503;SDS011;59323;50.874;7.028;2023-06-22T08:23:31;9.48;;;6.57;;
71503;SDS011;59323;50.874;7.028;2023-06-22T08:25:56;9.07;;;6.53;;
71503;SDS011;59323;50.874;7.028;2023-06-22T08:28:22;9.50;;;7.30;;
71503;SDS011;59323;50.874;7.028;2023-06-22T08:30:47;9.50;;;6.40;;
71503;SDS011;59323;50.874;7.028;2023-06-22T08:33:12;11.87;;;7.27;;
71503;SDS011;59323;50.874;7.028;2023-06-22T08:35:38;12.07;;;6.73;;
71503;SDS011;59323;50.874;7.028;2023-06-22T08:38:03;10.17;;;7.20;;
71503;SDS011;59323;50.874;7.028;2023-06-22T08:40:29;9.20;;;6.57;;
71503;SDS011;59323;50.874;7.028;2023-06-22T08:42:54;11.30;;;6.67;;
71503;SDS011;59323;50.874;7.028;2023-06-22T08:45:20;12.13;;;7.30;;
71503;SDS011;59323;50.874;7.028;2023-06-22T08:47:45;10.10;;;7.17;;
71503;SDS011;59323;50.874;7.028;2023-06-22T08:50:11;10.73;;;6.73;;
71503;SDS011;59323;50.874;7.028;2023-06-22T08:52:37;14.10;;;7.60;;
71503;SDS011;59323;50.874;7.028;2023-06-22T08:55:06;11.05;;;6.95;;
71503;SDS011;59323;50.874;7.028;2023-06-22T08:57:32;10.90;;;7.45;;
71503;SDS011;59323;50.874;7.028;2023-06-22T09:00:05;9.70;;;6.87;;
71503;SDS011;59323;50.874;7.028;2023-06-22T09:02:42;13.32;;;7.15;;
71503;SDS011;59323;50.874;7.028;2023-06-22T09:05:09;11.00;;;6.60;;
71503;SDS011;59323;50.874;7.028;2023-06-22T09:07:35;9.47;;;7.07;;
71503;SDS011;59323;50.874;7.028;2023-06-22T09:10:00;11.25;;;6.82;;
71503;SDS011;59323;50.874;7.028;2023-06-22T09:12:26;9.27;;;6.90;;
71503;SDS011;59323;50.874;7.028;2023-06-22T09:14:52;10.70;;;7.25;;
71503;SDS011;59323;50.874;7.028;2023-06-22T09:17:18;11.43;;;7.45;;
71503;SDS011;59323;50.874;7.028;2023-06-22T09:19:43;9.30;;;6.93;;
71503;SDS011;59323;50.874;7.028;2023-06-22T09:22:09;11.17;;;6.83;;
71503;SDS011;59323;50.874;7.028;2023-06-22T09:24:34;10.77;;;8.00;;
71503;SDS011;59323;50.874;7.028;2023-06-22T09:27:00;12.13;;;8.32;;
71503;SDS011;59323;50.874;7.028;2023-06-22T09:29:25;9.57;;;6.50;;
71503;SDS011;59323;50.874;7.028;2023-06-22T09:31:50;10.27;;;6.60;;
71503;SDS011;59323;50.874;7.028;2023-06-22T09:34:18;10.65;;;6.25;;
71503;SDS011;59323;50.874;7.028;2023-06-22T09:36:45;10.75;;;6.43;;
71503;SDS011;59323;50.874;7.028;2023-06-22T09:39:11;9.80;;;6.05;;
71503;SDS011;59323;50.874;7.028;2023-06-22T09:41:36;9.77;;;6.33;;
71503;SDS011;59323;50.874;7.028;2023-06-22T09:44:02;9.13;;;6.60;;
71503;SDS011;59323;50.874;7.028;2023-06-22T09:46:27;10.00;;;7.07;;
71503;SDS011;59323;50.874;7.028;2023-06-22T09:48:53;8.60;;;5.90;;
71503;SDS011;59323;50.874;7.028;2023-06-22T09:51:19;10.57;;;6.63;;
71503;SDS011;59323;50.874;7.028;2023-06-22T09:53:48;9.18;;;7.20;;
71503;SDS011;59323;50.874;7.028;2023-06-22T09:56:14;9.05;;;6.53;;
71503;SDS011;59323;50.874;7.028;2023-06-22T09:58:41;10.63;;;7.15;;
71503;SDS011;59323;50.874;7.028;2023-06-22T10:01:08;9.20;;;6.40;;
71503;SDS011;59323;50.874;7.028;2023-06-22T10:03:33;11.00;;;6.30;;
71503;SDS011;59323;50.874;7.028;2023-06-22T10:05:58;10.00;;;6.70;;
71503;SDS011;59323;50.874;7.028;2023-06-22T10:08:24;9.70;;;7.10;;
71503;SDS011;59323;50.874;7.028;2023-06-22T10:10:49;10.33;;;6.50;;
71503;SDS011;59323;50.874;7.028;2023-06-22T10:13:15;10.90;;;7.27;;
71503;SDS011;59323;50.874;7.028;2023-06-22T10:15:40;12.07;;;7.07;;
71503;SDS011;59323;50.874;7.028;2023-06-22T10:18:06;10.07;;;6.40;;
71503;SDS011;59323;50.874;7.028;2023-06-22T10:20:32;10.27;;;6.97;;
71503;SDS011;59323;50.874;7.028;2023-06-22T10:22:57;11.30;;;6.27;;
71503;SDS011;59323;50.874;7.028;2023-06-22T10:25:23;10.57;;;7.35;;
71503;SDS011;59323;50.874;7.028;2023-06-22T10:27:48;12.83;;;6.97;;
71503;SDS011;59323;50.874;7.028;2023-06-22T10:30:14;10.93;;;6.50;;
71503;SDS011;59323;50.874;7.028;2023-06-22T10:32:40;10.20;;;7.22;;
71503;SDS011;59323;50.874;7.028;2023-06-22T10:35:07;10.00;;;7.32;;
71503;SDS011;59323;50.874;7.028;2023-06-22T10:37:33;10.77;;;7.30;;
71503;SDS011;59323;50.874;7.028;2023-06-22T10:39:58;10.20;;;7.55;;
71503;SDS011;59323;50.874;7.028;2023-06-22T10:42:24;13.17;;;7.77;;
71503;SDS011;59323;50.874;7.028;2023-06-22T10:44:49;13.37;;;8.17;;
71503;SDS011;59323;50.874;7.028;2023-06-22T10:47:15;13.33;;;7.83;;
71503;SDS011;59323;50.874;7.028;2023-06-22T10:49:40;11.77;;;7.90;;
71503;SDS011;59323;50.874;7.028;2023-06-22T10:52:06;11.98;;;8.30;;
71503;SDS011;59323;50.874;7.028;2023-06-22T10:54:33;11.65;;;7.38;;
71503;SDS011;59323;50.874;7.028;2023-06-22T10:56:59;13.75;;;8.23;;
71503;SDS011;59323;50.874;7.028;2023-06-22T10:59:24;13.83;;;8.70;;
71503;SDS011;59323;50.874;7.028;2023-06-22T11:01:51;14.77;;;8.52;;
71503;SDS011;59323;50.874;7.028;2023-06-22T11:04:16;13.25;;;8.93;;
71503;SDS011;59323;50.874;7.028;2023-06-22T11:06:42;14.67;;;9.70;;
71503;SDS011;59323;50.874;7.028;2023-06-22T11:09:08;13.93;;;8.10;;
71503;SDS011;59323;50.874;7.028;2023-06-22T11:11:33;13.47;;;8.10;;
71503;SDS011;59323;50.874;7.028;2023-06-22T11:13:59;19.87;;;8.67;;
71503;SDS011;59323;50.874;7.028;2023-06-22T11:16:24;18.77;;;10.50;;
71503;SDS011;59323;50.874;7.028;2023-06-22T11:18:50;17.17;;;10.77;;
71503;SDS011;59323;50.874;7.028;2023-06-22T11:21:15;16.43;;;10.23;;
71503;SDS011;59323;50.874;7.028;2023-06-22T11:23:41;15.23;;;9.80;;
71503;SDS011;59323;50.874;7.028;2023-06-22T11:26:07;16.15;;;9.50;;
71503;SDS011;59323;50.874;7.028;2023-06-22T11:28:32;16.05;;;9.55;;
71503;SDS011;59323;50.874;7.028;2023-06-22T11:31:04;14.60;;;8.93;;
71503;SDS011;59323;50.874;7.028;2023-06-22T11:33:44;13.07;;;9.33;;
71503;SDS011;59323;50.874;7.028;2023-06-22T11:36:13;13.05;;;8.80;;
71503;SDS011;59323;50.874;7.028;2023-06-22T11:38:45;14.30;;;9.20;;
71503;SDS011;59323;50.874;7.028;2023-06-22T11:41:14;15.25;;;9.10;;
71503;SDS011;59323;50.874;7.028;2023-06-22T11:43:49;14.98;;;9.07;;
71503;SDS011;59323;50.874;7.028;2023-06-22T11:46:23;13.77;;;8.90;;
71503;SDS011;59323;50.874;7.028;2023-06-22T11:48:51;14.95;;;9.25;;
71503;SDS011;59323;50.874;7.028;2023-06-22T11:51:34;15.20;;;9.27;;
71503;SDS011;59323;50.874;7.028;2023-06-22T11:53:59;13.23;;;8.40;;
71503;SDS011;59323;50.874;7.028;2023-06-22T11:56:25;15.32;;;8.85;;
71503;SDS011;59323;50.874;7.028;2023-06-22T11:58:52;12.65;;;8.10;;
71503;SDS011;59323;50.874;7.028;2023-06-22T12:01:21;12.00;;;7.83;;
71503;SDS011;59323;50.874;7.028;2023-06-22T12:03:49;17.05;;;8.77;;
71503;SDS011;59323;50.874;7.028;2023-06-22T12:06:26;15.50;;;9.07;;
71503;SDS011;59323;50.874;7.028;2023-06-22T12:08:57;13.80;;;9.50;;
71503;SDS011;59323;50.874;7.028;2023-06-22T12:11:23;14.27;;;8.37;;
71503;SDS011;59323;50.874;7.028;2023-06-22T12:13:48;13.17;;;8.80;;
71503;SDS011;59323;50.874;7.028;2023-06-22T12:16:13;14.75;;;9.85;;
71503;SDS011;59323;50.874;7.028;2023-06-22T12:18:39;14.57;;;10.03;;
71503;SDS011;59323;50.874;7.028;2023-06-22T12:21:04;15.07;;;10.27;;
71503;SDS011;59323;50.874;7.028;2023-06-22T12:23:29;15.60;;;10.80;;
71503;SDS011;59323;50.874;7.028;2023-06-22T12:25:55;14.37;;;9.77;;
71503;SDS011;59323;50.874;7.028;2023-06-22T12:28:20;17.07;;;10.37;;
71503;SDS011;59323;50.874;7.028;2023-06-22T12:30:45;16.80;;;10.97;;
71503;SDS011;59323;50.874;7.028;2023-06-22T12:33:11;15.60;;;10.20;;
71503;SDS011;59323;50.874;7.028;2023-06-22T12:35:36;15.33;;;10.50;;
71503;SDS011;59323;50.874;7.028;2023-06-22T12:38:01;17.00;;;10.87;;
71503;SDS011;59323;50.874;7.028;2023-06-22T12:40:28;16.88;;;10.85;;
71503;SDS011;59323;50.874;7.028;2023-06-22T12:42:53;16.43;;;11.37;;
71503;SDS011;59323;50.874;7.028;2023-06-22T12:45:24;17.17;;;12.43;;
71503;SDS011;59323;50.874;7.028;2023-06-22T12:47:56;17.25;;;11.82;;
71503;SDS011;59323;50.874;7.028;2023-06-22T12:50:24;14.60;;;10.77;;
71503;SDS011;59323;50.874;7.028;2023-06-22T12:53:14;18.98;;;12.65;;
71503;SDS011;59323;50.874;7.028;2023-06-22T13:05:27;15.40;;;10.43;;
71503;SDS011;59323;50.874;7.028;2023-06-22T13:08:18;14.30;;;9.95;;
71503;SDS011;59323;50.874;7.028;2023-06-22T13:10:43;14.67;;;9.90;;
71503;SDS011;59323;50.874;7.028;2023-06-22T13:13:09;14.80;;;9.23;;
71503;SDS011;59323;50.874;7.028;2023-06-22T13:15:34;14.00;;;10.00;;
71503;SDS011;59323;50.874;7.028;2023-06-22T13:18:00;15.65;;;10.02;;
71503;SDS011;59323;50.874;7.028;2023-06-22T13:20:25;14.57;;;9.80;;
71503;SDS011;59323;50.874;7.028;2023-06-22T13:22:51;13.90;;;9.27;;
71503;SDS011;59323;50.874;7.028;2023-06-22T13:25:16;12.38;;;8.23;;
71503;SDS011;59323;50.874;7.028;2023-06-22T13:27:44;12.77;;;7.90;;
71503;SDS011;59323;50.874;7.028;2023-06-22T13:30:10;12.32;;;7.55;;
71503;SDS011;59323;50.874;7.028;2023-06-22T13:32:35;12.98;;;8.00;;
71503;SDS011;59323;50.874;7.028;2023-06-22T13:35:01;12.73;;;7.67;;
71503;SDS011;59323;50.874;7.028;2023-06-22T13:37:26;13.30;;;8.47;;
71503;SDS011;59323;50.874;7.028;2023-06-22T13:39:52;12.43;;;7.65;;
71503;SDS011;59323;50.874;7.028;2023-06-22T13:42:17;12.07;;;8.03;;
71503;SDS011;59323;50.874;7.028;2023-06-22T13:44:43;15.80;;;9.55;;
71503;SDS011;59323;50.874;7.028;2023-06-22T13:47:09;13.97;;;8.57;;
71503;SDS011;59323;50.874;7.028;2023-06-22T13:49:34;12.33;;;8.70;;
71503;SDS011;59323;50.874;7.028;2023-06-22T13:51:59;12.40;;;7.90;;
71503;SDS011;59323;50.874;7.028;2023-06-22T13:54:25;11.90;;;7.45;;
71503;SDS011;59323;50.874;7.028;2023-06-22T13:56:50;12.67;;;8.43;;
71503;SDS011;59323;50.874;7.028;2023-06-22T13:59:16;11.50;;;7.77;;
71503;SDS011;59323;50.874;7.028;2023-06-22T14:01:41;11.93;;;7.37;;
71503;SDS011;59323;50.874;7.028;2023-06-22T14:04:08;10.60;;;7.03;;
71503;SDS011;59323;50.874;7.028;2023-06-22T14:06:33;9.95;;;6.75;;
71503;SDS011;59323;50.874;7.028;2023-06-22T14:08:59;9.93;;;6.57;;
71503;SDS011;59323;50.874;7.028;2023-06-22T14:11:24;9.87;;;6.73;;
71503;SDS011;59323;50.874;7.028;2023-06-22T14:13:52;10.15;;;6.25;;
71503;SDS011;59323;50.874;7.028;2023-06-22T14:16:18;9.90;;;5.63;;
71503;SDS011;59323;50.874;7.028;2023-06-22T14:18:44;11.15;;;6.38;;
71503;SDS011;59323;50.874;7.028;2023-06-22T14:21:10;10.20;;;6.43;;
71503;SDS011;59323;50.874;7.028;2023-06-22T14:23:35;9.00;;;5.83;;
71503;SDS011;59323;50.874;7.028;2023-06-22T14:26:02;9.37;;;6.13;;
71503;SDS011;59323;50.874;7.028;2023-06-22T14:28:27;8.70;;;6.10;;
71503;SDS011;59323;50.874;7.028;2023-06-22T14:30:53;8.80;;;5.50;;
71503;SDS011;59323;50.874;7.028;2023-06-22T14:33:18;9.70;;;6.20;;
71503;SDS011;59323;50.874;7.028;2023-06-22T14:35:44;8.93;;;5.77;;
71503;SDS011;59323;50.874;7.028;2023-06-22T14:38:09;9.13;;;6.53;;
71503;SDS011;59323;50.874;7.028;2023-06-22T14:40:34;11.23;;;5.75;;
71503;SDS011;59323;50.874;7.028;2023-06-22T14:43:00;9.20;;;5.33;;
71503;SDS011;59323;50.874;7.028;2023-06-22T14:45:25;16.23;;;6.53;;
71503;SDS011;59323;50.874;7.028;2023-06-22T14:47:50;13.17;;;6.20;;
71503;SDS011;59323;50.874;7.028;2023-06-22T14:50:16;17.47;;;7.93;;
71503;SDS011;59323;50.874;7.028;2023-06-22T14:52:41;13.30;;;7.20;;